Time;durP1;ratioP1;P1;durP2;ratioP2;P2;SDS_P1;SDS_P2;PMS_P1;PMS_P2;Temp;Humidity;BMP_temperature;BMP_pressure;BME280_temperature;BME280_humidity;BME280_pressure;Samples;Min_cycle;Max_cycle;Signal;HPM_P1;HPM_P2
2024/01/28 00:02:20;;;;;;;15.75;9.38;;;;;;;1.87;100.00;103197.84;10373427;28;20050;-68
2024/01/28 00:07:21;;;;;;;22.52;10.15;;;;;;;1.78;100.00;103193.84;10372059;28;20030;-67
2024/01/28 00:12:21;;;;;;;23.45;10.18;;;;;;;1.64;100.00;103191.09;10371377;28;20037;-68
2024/01/28 00:17:21;;;;;;;21.30;10.38;;;;;;;1.53;100.00;103182.78;10370134;28;20040;-69
2024/01/28 00:22:23;;;;;;;17.77;10.30;;;;;;;1.44;100.00;103184.16;10369641;28;20137;-68
2024/01/28 00:27:23;;;;;;;16.10;10.13;;;;;;;1.29;100.00;103174.28;10370692;28;20026;-69
2024/01/28 00:32:24;;;;;;;24.48;10.75;;;;;;;1.24;100.00;103161.16;10369722;28;20038;-68
2024/01/28 00:37:24;;;;;;;24.77;10.13;;;;;;;1.19;100.00;103160.56;10369713;28;20406;-69
2024/01/28 00:42:24;;;;;;;17.10;9.63;;;;;;;1.17;100.00;103152.63;10356204;28;20113;-68
2024/01/28 00:47:25;;;;;;;12.68;9.75;;;;;;;1.14;100.00;103155.44;10370915;28;20057;-68
2024/01/28 00:52:25;;;;;;;29.02;11.25;;;;;;;1.00;100.00;103158.00;10369531;28;20081;-67
2024/01/28 00:57:26;;;;;;;18.88;10.13;;;;;;;0.99;100.00;103153.63;10369874;28;20046;-67
2024/01/28 01:02:26;;;;;;;19.23;10.63;;;;;;;0.97;100.00;103151.97;10368883;28;20529;-67
2024/01/28 01:07:27;;;;;;;27.40;10.60;;;;;;;0.95;100.00;103135.16;10400318;28;20042;-67
2024/01/28 01:12:27;;;;;;;15.77;10.60;;;;;;;0.99;100.00;103121.59;10369219;28;20065;-67
2024/01/28 01:17:28;;;;;;;17.00;10.65;;;;;;;1.00;100.00;103112.63;10367825;28;20426;-68
2024/01/28 01:22:28;;;;;;;34.47;12.05;;;;;;;0.87;100.00;103095.56;10369178;28;20042;-67
2024/01/28 01:27:28;;;;;;;18.17;11.13;;;;;;;0.86;100.00;103091.16;10382998;28;20462;-67
2024/01/28 01:32:29;;;;;;;19.23;11.52;;;;;;;0.82;100.00;103092.25;10368855;28;20048;-67
2024/01/28 01:37:29;;;;;;;21.23;11.98;;;;;;;0.78;100.00;103085.38;10368391;28;20060;-67
2024/01/28 01:42:30;;;;;;;15.32;11.13;;;;;;;0.75;100.00;103077.53;10400011;28;20061;-67
2024/01/28 01:47:30;;;;;;;31.17;12.48;;;;;;;0.76;100.00;103084.56;10368170;28;20405;-67
2024/01/28 01:52:30;;;;;;;18.52;11.23;;;;;;;0.70;100.00;103075.09;10400279;28;20119;-67
2024/01/28 01:57:31;;;;;;;20.17;11.27;;;;;;;0.77;100.00;103076.50;10370434;28;20041;-69
2024/01/28 02:02:32;;;;;;;18.80;12.57;;;;;;;0.75;100.00;103072.19;10368161;28;20069;-67
2024/01/28 02:07:33;;;;;;;31.63;12.48;;;;;;;0.85;100.00;103068.94;10367184;28;20038;-68
2024/01/28 02:12:33;;;;;;;23.33;11.10;;;;;;;0.91;100.00;103065.09;10349984;28;20366;-68
2024/01/28 02:17:33;;;;;;;19.08;12.75;;;;;;;1.06;100.00;103063.44;10366541;28;20046;-67
2024/01/28 02:22:34;;;;;;;13.80;10.57;;;;;;;0.98;100.00;103070.97;10374720;28;20042;-67
2024/01/28 02:27:35;;;;;;;31.20;11.88;;;;;;;1.05;100.00;103073.22;10357747;28;20118;-67
2024/01/28 02:32:36;;;;;;;24.65;11.43;;;;;;;1.06;100.00;103068.78;10376738;28;20065;-67
2024/01/28 02:37:36;;;;;;;21.35;11.40;;;;;;;1.00;100.00;103056.63;10375821;28;20485;-68
2024/01/28 02:42:37;;;;;;;18.63;11.38;;;;;;;1.02;100.00;103054.75;10375318;28;20084;-67
2024/01/28 02:47:37;;;;;;;17.27;11.73;;;;;;;1.08;100.00;103051.72;10374228;28;20061;-68
2024/01/28 02:52:37;;;;;;;16.77;12.35;;;;;;;1.10;100.00;103035.63;10375120;28;20082;-68
2024/01/28 02:57:38;;;;;;;17.85;11.27;;;;;;;1.02;100.00;103028.06;10374570;28;20038;-67
2024/01/28 03:02:39;;;;;;;17.67;10.80;;;;;;;0.92;100.00;103024.13;10390332;28;20124;-67
2024/01/28 03:07:40;;;;;;;13.20;10.27;;;;;;;0.85;100.00;103015.59;10375848;28;20036;-67
2024/01/28 03:12:41;;;;;;;16.88;8.95;;;;;;;0.89;100.00;103006.53;10375566;28;20164;-69
2024/01/28 03:17:41;;;;;;;18.02;9.45;;;;;;;0.87;100.00;103008.41;10375066;28;20104;-68
2024/01/28 03:22:42;;;;;;;15.18;9.57;;;;;;;0.79;100.00;103005.25;10372642;28;20512;-67
2024/01/28 03:27:42;;;;;;;19.83;9.85;;;;;;;0.73;100.00;103002.06;10373624;28;20033;-67
2024/01/28 03:32:42;;;;;;;16.08;10.68;;;;;;;0.67;100.00;103000.59;10371781;28;20463;-67
2024/01/28 03:37:43;;;;;;;27.88;9.40;;;;;;;0.62;100.00;102992.84;10376089;28;20030;-67
2024/01/28 03:42:43;;;;;;;14.50;9.43;;;;;;;0.51;100.00;103000.56;10388263;28;20049;-68
2024/01/28 03:47:44;;;;;;;16.85;10.77;;;;;;;0.41;100.00;102993.97;10390749;28;20101;-68
2024/01/28 03:52:44;;;;;;;20.98;10.40;;;;;;;0.42;100.00;102991.22;10373468;28;20099;-68
2024/01/28 03:57:45;;;;;;;14.43;10.57;;;;;;;0.31;100.00;102990.06;10371815;28;20064;-68
2024/01/28 04:02:45;;;;;;;18.17;11.95;;;;;;;0.24;100.00;102989.50;10371917;28;20068;-68
2024/01/28 04:07:45;;;;;;;18.33;10.35;;;;;;;0.20;100.00;102980.81;10371784;28;20057;-67
2024/01/28 04:12:46;;;;;;;16.58;10.27;;;;;;;0.22;100.00;102984.28;10371299;28;20066;-68
2024/01/28 04:17:47;;;;;;;13.30;9.40;;;;;;;0.20;100.00;102970.16;10369980;28;20129;-67
2024/01/28 04:22:47;;;;;;;22.63;9.13;;;;;;;0.17;100.00;102961.47;10386342;28;20100;-69
2024/01/28 04:27:47;;;;;;;14.05;9.23;;;;;;;0.18;100.00;102961.38;10370832;28;20136;-67
2024/01/28 04:32:49;;;;;;;14.13;8.50;;;;;;;0.19;100.00;102947.13;10371393;28;20501;-68
2024/01/28 04:37:49;;;;;;;10.15;8.68;;;;;;;0.30;100.00;102938.56;10371593;28;20038;-69
2024/01/28 04:42:49;;;;;;;13.45;8.77;;;;;;;0.37;100.00;102939.97;10385935;28;20100;-69
2024/01/28 04:47:50;;;;;;;14.02;9.02;;;;;;;0.40;100.00;102939.78;10370233;28;20058;-67
2024/01/28 04:52:51;;;;;;;15.27;8.40;;;;;;;0.35;100.00;102927.66;10370464;28;20061;-69
2024/01/28 04:57:52;;;;;;;12.38;9.40;;;;;;;0.34;100.00;102917.94;10368339;28;20042;-68
2024/01/28 05:02:55;;;;;;;9.80;8.45;;;;;;;0.30;100.00;102916.38;10368582;28;20037;-68
2024/01/28 05:07:55;;;;;;;10.88;8.20;;;;;;;0.23;100.00;102906.06;10368451;28;20034;-67
2024/01/28 05:12:56;;;;;;;15.23;8.38;;;;;;;0.15;100.00;102912.72;10369567;28;20034;-68
2024/01/28 05:17:56;;;;;;;11.70;8.65;;;;;;;0.11;100.00;102911.16;10370729;28;20536;-67
2024/01/28 05:22:59;;;;;;;9.80;8.80;;;;;;;0.10;100.00;102896.13;10370105;28;20145;-67
2024/01/28 05:27:59;;;;;;;17.27;9.23;;;;;;;0.11;100.00;102887.19;10369626;28;20086;-67
2024/01/28 05:33:00;;;;;;;18.52;8.52;;;;;;;0.16;100.00;102882.47;10373557;28;20094;-68
2024/01/28 05:38:00;;;;;;;10.15;8.55;;;;;;;0.06;100.00;102884.75;10380648;28;20065;-67
2024/01/28 05:43:01;;;;;;;13.05;8.90;;;;;;;0.03;100.00;102887.56;10372704;28;20042;-68
2024/01/28 05:48:01;;;;;;;14.32;7.85;;;;;;;-0.01;100.00;102876.22;10370040;28;20084;-68
2024/01/28 05:53:02;;;;;;;15.57;8.88;;;;;;;-0.07;100.00;102873.03;10385397;28;20057;-68
2024/01/28 05:58:02;;;;;;;23.55;8.00;;;;;;;-0.10;100.00;102870.50;10367727;28;20038;-68
2024/01/28 06:03:04;;;;;;;10.43;8.07;;;;;;;-0.10;100.00;102876.69;10383654;28;20026;-67
2024/01/28 06:08:08;;;;;;;18.50;10.02;;;;;;;-0.15;100.00;102877.91;10360032;28;20038;-67
2024/01/28 06:13:08;;;;;;;16.63;8.15;;;;;;;-0.29;100.00;102871.50;10383136;28;20034;-67
2024/01/28 06:18:08;;;;;;;16.27;8.43;;;;;;;-0.34;100.00;102868.19;10387875;28;20085;-68
2024/01/28 06:23:09;;;;;;;11.38;6.97;;;;;;;-0.34;100.00;102870.84;10368127;28;20038;-69
2024/01/28 06:28:10;;;;;;;12.52;7.93;;;;;;;-0.22;100.00;102868.47;10383721;28;20084;-68
2024/01/28 06:33:10;;;;;;;16.25;8.40;;;;;;;-0.19;100.00;102858.56;10387430;28;20052;-68
2024/01/28 06:38:11;;;;;;;13.77;6.90;;;;;;;-0.26;100.00;102863.31;10386722;28;20042;-68
2024/01/28 06:43:11;;;;;;;15.95;7.53;;;;;;;-0.22;100.00;102850.72;10403767;28;20030;-69
2024/01/28 06:48:12;;;;;;;17.52;7.78;;;;;;;-0.20;100.00;102851.50;10366854;28;20141;-67
2024/01/28 06:53:12;;;;;;;14.43;8.00;;;;;;;-0.17;100.00;102854.00;10366727;28;20061;-67
2024/01/28 06:58:13;;;;;;;15.75;6.88;;;;;;;-0.06;100.00;102851.66;10365428;28;20586;-68
2024/01/28 07:03:13;;;;;;;15.55;6.25;;;;;;;-0.03;100.00;102842.66;10366703;28;20116;-67
2024/01/28 07:08:13;;;;;;;5.70;5.20;;;;;;;0.03;100.00;102836.97;10402485;28;20034;-67
2024/01/28 07:13:14;;;;;;;8.77;6.45;;;;;;;0.24;100.00;102840.31;10372805;28;20045;-68
2024/01/28 07:18:14;;;;;;;9.02;5.63;;;;;;;0.39;100.00;102843.94;10374063;28;20050;-67
2024/01/28 07:23:15;;;;;;;11.63;6.82;;;;;;;0.52;100.00;102846.81;10372600;28;20045;-66
2024/01/28 07:28:15;;;;;;;8.00;5.38;;;;;;;0.60;100.00;102848.06;10373226;28;20036;-68
2024/01/28 07:33:17;;;;;;;9.85;6.43;;;;;;;0.68;100.00;102851.19;10371973;28;20512;-68
2024/01/28 07:38:17;;;;;;;10.40;6.68;;;;;;;0.79;100.00;102831.91;10388872;28;20100;-69
2024/01/28 07:43:18;;;;;;;8.02;6.53;;;;;;;1.03;100.00;102827.00;10371723;28;20058;-66
2024/01/28 07:48:18;;;;;;;6.93;5.78;;;;;;;1.23;100.00;102807.16;10373077;28;20440;-69
2024/01/28 07:53:18;;;;;;;8.00;5.22;;;;;;;1.54;100.00;102800.88;10371315;28;20072;-67
2024/01/28 07:58:19;;;;;;;8.10;5.25;;;;;;;1.77;100.00;102802.16;10403944;28;20030;-67
2024/01/28 08:03:19;;;;;;;6.55;5.40;;;;;;;2.02;100.00;102803.31;10355077;28;20030;-68
2024/01/28 08:08:20;;;;;;;5.63;4.40;;;;;;;2.50;100.00;102793.16;10371303;28;20096;-68
2024/01/28 08:13:21;;;;;;;16.55;6.07;;;;;;;2.95;100.00;102791.13;10372568;28;20045;-67
2024/01/28 08:18:22;;;;;;;16.55;6.22;;;;;;;3.50;100.00;102793.63;10372863;28;20038;-68
2024/01/28 08:23:22;;;;;;;9.95;5.32;;;;;;;3.87;100.00;102791.09;10372621;28;20061;-68
2024/01/28 08:28:23;;;;;;;10.40;5.32;;;;;;;4.20;100.00;102789.66;10372130;28;20112;-68
2024/01/28 08:33:23;;;;;;;7.15;4.38;;;;;;;4.42;100.00;102781.78;10374801;28;20065;-67
2024/01/28 08:38:23;;;;;;;5.90;4.70;;;;;;;4.82;100.00;102783.41;10371498;28;20080;-69
2024/01/28 08:43:24;;;;;;;5.55;4.82;;;;;;;5.24;100.00;102781.16;10370075;28;20038;-68
2024/01/28 08:48:24;;;;;;;5.47;4.75;;;;;;;5.27;100.00;102779.09;10369664;28;20146;-67
2024/01/28 08:53:25;;;;;;;10.43;5.32;;;;;;;5.80;100.00;102768.69;10371287;28;20188;-68
2024/01/28 08:58:26;;;;;;;14.48;4.80;;;;;;;6.40;100.00;102760.41;10368804;28;20030;-68
2024/01/28 09:03:26;;;;;;;4.60;3.90;;;;;;;6.82;100.00;102756.03;10369626;28;20033;-69
2024/01/28 09:08:30;;;;;;;6.25;4.30;;;;;;;7.05;100.00;102758.63;10371879;28;20034;-68
2024/01/28 09:13:30;;;;;;;9.90;6.20;;;;;;;7.30;100.00;102758.25;10369610;28;20112;-67
2024/01/28 09:18:30;;;;;;;7.07;4.90;;;;;;;7.58;100.00;102756.75;10369977;28;20120;-68
2024/01/28 09:23:31;;;;;;;7.82;3.92;;;;;;;7.78;100.00;102760.41;10369206;28;20044;-69
2024/01/28 09:28:31;;;;;;;4.95;4.55;;;;;;;7.79;100.00;102750.50;10368279;28;20132;-67
2024/01/28 09:33:32;;;;;;;8.00;5.15;;;;;;;7.61;100.00;102745.72;10368858;28;20042;-69
2024/01/28 09:38:32;;;;;;;5.90;4.05;;;;;;;7.86;100.00;102743.59;10368894;28;20053;-68
2024/01/28 09:43:34;;;;;;;5.00;4.55;;;;;;;8.34;100.00;102740.22;10368577;28;20069;-67
2024/01/28 09:48:35;;;;;;;6.00;4.15;;;;;;;8.56;100.00;102739.19;10366778;28;20108;-66
2024/01/28 09:53:35;;;;;;;6.50;3.97;;;;;;;8.86;100.00;102738.19;10366822;28;20038;-66
2024/01/28 09:58:39;;;;;;;4.38;3.95;;;;;;;9.16;100.00;102731.81;10368031;28;20056;-68
2024/01/28 10:03:39;;;;;;;4.32;3.92;;;;;;;9.07;100.00;102725.41;10367116;28;20052;-69
2024/01/28 10:08:40;;;;;;;7.47;4.90;;;;;;;9.45;100.00;102715.56;10317131;28;20108;-68
2024/01/28 10:13:41;;;;;;;3.60;3.30;;;;;;;9.68;100.00;102716.06;10368229;28;20417;-68
2024/01/28 10:18:41;;;;;;;7.28;3.50;;;;;;;9.94;100.00;102710.84;10366703;28;20034;-67
2024/01/28 10:23:42;;;;;;;13.68;4.25;;;;;;;10.12;100.00;102715.47;10367823;28;20092;-69
2024/01/28 10:28:43;;;;;;;3.13;2.85;;;;;;;10.32;100.00;102722.50;10366327;28;20513;-66
2024/01/28 10:33:44;;;;;;;3.63;3.30;;;;;;;10.28;100.00;102714.84;10367246;28;20109;-69
2024/01/28 10:38:45;;;;;;;3.53;3.33;;;;;;;10.38;100.00;102721.06;10367929;28;20041;-66
2024/01/28 10:43:57;;;;;;;12.32;3.47;;;;;;;10.55;97.88;102708.53;10389457;28;20346;-67
2024/01/28 10:49:00;;;;;;;4.60;3.83;;;;;;;10.29;89.58;102700.31;10373899;28;20054;-67
2024/01/28 10:54:04;;;;;;;4.32;3.50;;;;;;;10.44;81.37;102691.50;10357328;28;20041;-66
2024/01/28 10:59:04;;;;;;;3.97;3.40;;;;;;;10.79;74.36;102670.84;10405792;28;20120;-67
2024/01/28 11:04:05;;;;;;;4.32;3.70;;;;;;;11.23;79.40;102665.47;10372911;28;20057;-66
2024/01/28 11:09:05;;;;;;;4.63;3.90;;;;;;;11.02;77.89;102652.25;10372794;28;20040;-67
2024/01/28 11:14:09;;;;;;;4.72;4.00;;;;;;;11.06;89.65;102652.78;10372697;28;20085;-68
2024/01/28 11:19:13;;;;;;;3.65;3.35;;;;;;;10.76;93.33;102644.06;10389870;28;20036;-67
2024/01/28 11:24:14;;;;;;;5.82;3.35;;;;;;;11.00;96.41;102627.13;10372286;28;20385;-67
2024/01/28 11:29:15;;;;;;;4.90;2.85;;;;;;;10.91;80.43;102614.53;10371839;28;20045;-67
2024/01/28 11:34:17;;;;;;;5.03;3.72;;;;;;;10.69;81.70;102607.78;10372051;28;20063;-68
2024/01/28 11:39:39;;;;;;;4.40;3.17;;;;;;;10.58;71.97;102597.16;10388457;28;20176;-68
2024/01/28 11:44:43;;;;;;;3.88;3.15;;;;;;;10.45;75.81;102595.69;10373516;28;20146;-68
2024/01/28 11:49:43;;;;;;;7.45;4.13;;;;;;;10.48;81.80;102579.13;10371028;28;20053;-71
2024/01/28 11:54:47;;;;;;;4.10;3.40;;;;;;;10.63;83.06;102574.03;10382704;28;20041;-67
2024/01/28 11:59:47;;;;;;;3.75;3.00;;;;;;;10.74;74.68;102558.53;10400387;28;20461;-67
2024/01/28 12:04:56;;;;;;;6.45;3.08;;;;;;;10.71;70.26;102562.38;10444428;28;20034;-67
2024/01/28 12:10:02;;;;;;;3.95;2.80;;;;;;;10.29;73.61;102549.50;10447425;28;20033;-68
2024/01/28 12:15:03;;;;;;;5.07;3.03;;;;;;;10.48;70.65;102541.22;10354148;28;20080;-68
2024/01/28 12:20:05;;;;;;;7.85;3.15;;;;;;;10.58;74.02;102540.28;10347284;28;20069;-67
2024/01/28 12:25:09;;;;;;;6.07;3.65;;;;;;;10.71;68.89;102524.47;10330230;28;20042;-69
2024/01/28 12:30:10;;;;;;;3.72;3.42;;;;;;;10.85;77.64;102521.19;10360292;28;20038;-68
2024/01/28 12:35:10;;;;;;;3.90;3.50;;;;;;;10.70;70.07;102514.63;10329710;28;20041;-69
2024/01/28 12:40:11;;;;;;;5.32;3.38;;;;;;;10.83;72.98;102511.50;10329591;28;20470;-69
2024/01/28 12:45:12;;;;;;;3.42;3.13;;;;;;;10.81;79.41;102508.94;10333696;28;20084;-69
2024/01/28 12:50:12;;;;;;;3.45;3.25;;;;;;;10.84;67.31;102516.75;10410025;28;20449;-67
2024/01/28 12:55:13;;;;;;;4.25;3.35;;;;;;;10.92;67.35;102491.56;10410607;28;20128;-66
2024/01/28 13:00:16;;;;;;;4.43;3.53;;;;;;;10.87;81.77;102505.59;10442044;28;20434;-67
2024/01/28 13:05:16;;;;;;;3.17;2.88;;;;;;;11.30;87.94;102487.53;10410307;28;20033;-69
2024/01/28 13:10:17;;;;;;;3.40;3.08;;;;;;;11.33;80.48;102478.22;10409477;28;20063;-67
2024/01/28 13:15:17;;;;;;;4.53;4.05;;;;;;;10.56;71.19;102474.56;10411013;28;20083;-68
2024/01/28 13:20:19;;;;;;;3.22;2.88;;;;;;;10.39;74.05;102479.88;10409850;28;20033;-67
2024/01/28 13:25:20;;;;;;;3.67;3.15;;;;;;;10.27;74.90;102474.84;10411180;28;20465;-67
2024/01/28 13:30:21;;;;;;;5.95;3.70;;;;;;;9.81;80.44;102449.75;10409468;28;20038;-68
2024/01/28 13:35:21;;;;;;;6.18;3.95;;;;;;;9.65;80.66;102445.00;10409177;28;20505;-68
2024/01/28 13:40:22;;;;;;;3.30;2.88;;;;;;;9.84;82.86;102442.16;10424524;28;20113;-67
2024/01/28 13:45:22;;;;;;;9.32;3.53;;;;;;;9.73;93.32;102431.56;10405234;28;20120;-65
2024/01/28 13:50:23;;;;;;;3.10;2.90;;;;;;;9.52;83.40;102419.19;10367441;28;20053;-66
2024/01/28 13:55:23;;;;;;;5.60;3.28;;;;;;;9.39;84.24;102420.56;10368852;28;20435;-68
2024/01/28 14:00:24;;;;;;;8.52;4.90;;;;;;;9.26;87.47;102410.13;10367650;28;20679;-66
2024/01/28 14:05:24;;;;;;;5.10;4.10;;;;;;;9.08;89.41;102392.00;10368513;28;20034;-66
2024/01/28 14:10:25;;;;;;;6.75;4.50;;;;;;;8.84;88.80;102376.38;10372488;28;20038;-67
2024/01/28 14:15:25;;;;;;;4.32;3.75;;;;;;;8.71;89.02;102377.69;10426700;28;20061;-66
2024/01/28 14:20:26;;;;;;;3.50;3.30;;;;;;;8.71;90.15;102361.50;10417514;28;20029;-66
2024/01/28 14:25:26;;;;;;;5.47;3.65;;;;;;;8.70;87.46;102376.00;10449831;28;20033;-67
2024/01/28 14:30:26;;;;;;;8.35;4.15;;;;;;;8.75;86.52;102381.81;10416174;28;20033;-66
2024/01/28 14:35:27;;;;;;;5.25;3.95;;;;;;;9.04;94.91;102387.06;10416557;28;20038;-67
2024/01/28 14:40:27;;;;;;;4.30;3.30;;;;;;;9.06;92.02;102399.44;10447461;28;20064;-66
2024/01/28 14:45:28;;;;;;;4.10;3.80;;;;;;;9.05;95.10;102400.41;10415898;28;20481;-67
2024/01/28 14:50:31;;;;;;;5.90;3.72;;;;;;;8.91;90.51;102386.56;10431008;28;20057;-66
2024/01/28 14:55:32;;;;;;;8.40;3.53;;;;;;;9.05;93.56;102384.19;10414337;28;20087;-67
2024/01/28 15:00:33;;;;;;;6.22;3.20;;;;;;;9.02;93.38;102376.41;10415054;28;20034;-66
2024/01/28 15:05:33;;;;;;;4.20;3.33;;;;;;;9.00;96.80;102374.88;10447180;28;20064;-66
2024/01/28 15:10:33;;;;;;;6.18;3.58;;;;;;;8.96;92.80;102371.59;10415301;28;20114;-66
2024/01/28 15:15:34;;;;;;;4.72;4.20;;;;;;;8.91;96.09;102368.50;10414931;28;20060;-66
2024/01/28 15:20:35;;;;;;;3.60;3.13;;;;;;;8.81;96.61;102363.16;10415872;28;20140;-65
2024/01/28 15:25:35;;;;;;;5.03;3.80;;;;;;;8.73;99.05;102362.19;10448779;28;20061;-67
2024/01/28 15:30:36;;;;;;;11.85;3.03;;;;;;;8.66;100.00;102369.22;10393532;28;20033;-67
2024/01/28 15:35:38;;;;;;;5.43;3.67;;;;;;;8.56;99.79;102367.41;10392646;28;20076;-71
2024/01/28 15:40:38;;;;;;;6.60;4.20;;;;;;;8.49;100.00;102368.16;10405000;28;20049;-67
2024/01/28 15:45:39;;;;;;;4.35;3.70;;;;;;;8.46;100.00;102357.66;10339056;28;20056;-67
2024/01/28 15:50:39;;;;;;;7.43;3.80;;;;;;;8.41;100.00;102368.88;10412902;28;20053;-68
2024/01/28 15:55:40;;;;;;;7.35;5.03;;;;;;;8.31;99.47;102371.56;10414664;28;20072;-68
2024/01/28 16:00:40;;;;;;;6.70;4.55;;;;;;;8.30;100.00;102359.06;10413608;28;20096;-69
2024/01/28 16:05:41;;;;;;;7.50;4.75;;;;;;;8.16;100.00;102354.97;10413307;28;20075;-68
2024/01/28 16:10:41;;;;;;;10.55;4.43;;;;;;;8.04;100.00;102355.28;10445084;28;20503;-68
2024/01/28 16:15:42;;;;;;;6.97;5.85;;;;;;;7.99;100.00;102353.03;10412845;28;20560;-68
2024/01/28 16:20:43;;;;;;;4.20;3.80;;;;;;;7.93;100.00;102361.72;10412612;28;20064;-67
2024/01/28 16:25:43;;;;;;;5.22;3.65;;;;;;;7.83;100.00;102360.88;10412851;28;20038;-66
2024/01/28 16:30:44;;;;;;;7.45;3.83;;;;;;;7.79;100.00;102364.88;10443613;28;20033;-65
2024/01/28 16:35:44;;;;;;;5.45;4.28;;;;;;;7.71;100.00;102370.09;10412098;28;20120;-66
2024/01/28 16:40:45;;;;;;;9.57;4.55;;;;;;;7.59;100.00;102364.00;10411434;28;20124;-67
2024/01/28 16:45:45;;;;;;;7.85;4.50;;;;;;;7.55;100.00;102365.28;10410047;28;20045;-67
2024/01/28 16:50:45;;;;;;;5.40;4.63;;;;;;;7.50;100.00;102371.13;10410975;28;20062;-68
2024/01/28 16:55:47;;;;;;;5.00;4.50;;;;;;;7.50;100.00;102365.72;10409827;28;20374;-66
2024/01/28 17:00:47;;;;;;;12.05;5.28;;;;;;;7.41;100.00;102351.25;10409192;28;20033;-67
2024/01/28 17:05:48;;;;;;;6.65;5.35;;;;;;;7.34;100.00;102349.22;10442130;28;20033;-68
2024/01/28 17:10:48;;;;;;;6.50;4.72;;;;;;;7.27;100.00;102338.16;10410515;28;20037;-66
2024/01/28 17:15:49;;;;;;;10.90;3.97;;;;;;;7.20;100.00;102331.66;10410186;28;20493;-67
2024/01/28 17:20:49;;;;;;;5.65;4.32;;;;;;;7.19;100.00;102329.94;10425567;28;20560;-66
2024/01/28 17:25:50;;;;;;;6.63;4.28;;;;;;;7.09;100.00;102323.72;10410169;28;20508;-68
2024/01/28 17:30:51;;;;;;;6.65;4.68;;;;;;;7.06;100.00;102326.69;10408982;28;20072;-67
2024/01/28 17:35:52;;;;;;;6.65;5.57;;;;;;;6.94;100.00;102326.78;10409485;28;20052;-66
2024/01/28 17:40:54;;;;;;;10.35;5.50;;;;;;;6.89;100.00;102307.53;10391588;28;20033;-66
2024/01/28 17:45:55;;;;;;;8.52;5.07;;;;;;;6.87;100.00;102308.66;10409390;28;20041;-66
2024/01/28 17:50:55;;;;;;;6.32;5.72;;;;;;;6.83;100.00;102301.81;10408569;28;20068;-66
2024/01/28 17:55:57;;;;;;;12.55;5.90;;;;;;;6.73;100.00;102296.41;10392591;28;20140;-67
2024/01/28 18:00:57;;;;;;;8.52;6.68;;;;;;;6.72;100.00;102294.72;10410206;28;20192;-67
2024/01/28 18:05:58;;;;;;;6.70;4.65;;;;;;;6.66;100.00;102312.25;10424617;28;20033;-67
2024/01/28 18:11:02;;;;;;;7.50;4.97;;;;;;;6.56;100.00;102313.22;10412325;28;20065;-68
2024/01/28 18:16:03;;;;;;;6.22;5.63;;;;;;;6.49;100.00;102305.69;10408441;28;20045;-68
2024/01/28 18:21:05;;;;;;;7.90;5.55;;;;;;;6.47;100.00;102302.28;10440970;28;20041;-67
2024/01/28 18:26:07;;;;;;;6.97;5.68;;;;;;;6.47;100.00;102301.44;10408749;28;20091;-67
2024/01/28 18:31:07;;;;;;;9.98;6.70;;;;;;;6.43;100.00;102318.84;10439621;28;20099;-67
2024/01/28 18:36:09;;;;;;;5.03;4.57;;;;;;;6.24;100.00;102312.38;10406991;28;20048;-65
2024/01/28 18:41:10;;;;;;;8.70;5.75;;;;;;;6.28;100.00;102313.81;10423797;28;20478;-67
2024/01/28 18:46:11;;;;;;;6.40;5.05;;;;;;;6.29;100.00;102306.63;10440432;28;20477;-68
2024/01/28 18:51:11;;;;;;;4.70;4.28;;;;;;;6.24;100.00;102307.00;10422494;28;20056;-67
2024/01/28 18:56:14;;;;;;;10.00;5.95;;;;;;;6.40;100.00;102313.72;10440027;28;20039;-69
2024/01/28 19:01:15;;;;;;;6.78;5.05;;;;;;;6.31;100.00;102306.47;10423847;28;20025;-68
2024/01/28 19:06:15;;;;;;;11.70;5.35;;;;;;;6.47;100.00;102315.72;10430854;28;20109;-68
2024/01/28 19:11:15;;;;;;;7.78;5.60;;;;;;;6.61;100.00;102319.91;10413974;28;20064;-65
2024/01/28 19:16:16;;;;;;;6.93;4.60;;;;;;;6.71;100.00;102320.78;10414024;28;20128;-67
2024/01/28 19:21:16;;;;;;;5.95;5.47;;;;;;;6.62;100.00;102313.53;10415596;28;20041;-69
2024/01/28 19:26:20;;;;;;;10.00;6.32;;;;;;;6.58;100.00;102314.81;10415332;28;20095;-66
2024/01/28 19:31:21;;;;;;;7.13;6.03;;;;;;;6.59;100.00;102311.09;10414425;28;20038;-67
2024/01/28 19:36:21;;;;;;;7.45;4.70;;;;;;;6.44;100.00;102320.53;10414047;28;20037;-68
2024/01/28 19:41:22;;;;;;;12.48;5.63;;;;;;;6.43;100.00;102319.69;10445994;28;20487;-67
2024/01/28 19:46:22;;;;;;;9.68;6.28;;;;;;;6.44;100.00;102323.22;10413153;28;20104;-67
2024/01/28 19:51:25;;;;;;;6.65;4.93;;;;;;;6.30;100.00;102327.16;10413577;28;20136;-68
2024/01/28 19:56:25;;;;;;;9.20;5.90;;;;;;;6.22;100.00;102318.88;10413542;28;20041;-68
2024/01/28 20:01:26;;;;;;;12.10;6.75;;;;;;;6.27;100.00;102309.44;10412517;28;20068;-67
2024/01/28 20:06:27;;;;;;;6.78;6.03;;;;;;;6.24;100.00;102317.75;10444815;28;20025;-66
2024/01/28 20:11:27;;;;;;;11.20;6.18;;;;;;;6.18;100.00;102318.28;10412484;28;20053;-67
2024/01/28 20:16:28;;;;;;;5.95;5.45;;;;;;;6.18;100.00;102317.44;10415301;28;20348;-67
2024/01/28 20:21:30;;;;;;;9.05;6.15;;;;;;;6.18;100.00;102328.22;10416339;28;20037;-67
2024/01/28 20:26:30;;;;;;;7.57;6.35;;;;;;;6.16;100.00;102325.66;10415043;28;20122;-66
2024/01/28 20:31:31;;;;;;;10.57;6.25;;;;;;;6.31;100.00;102323.47;10412465;28;20113;-66
2024/01/28 20:36:32;;;;;;;5.93;5.32;;;;;;;6.34;100.00;102325.03;10445383;28;20536;-67
2024/01/28 20:41:32;;;;;;;8.95;6.55;;;;;;;6.26;100.00;102321.19;10428979;28;20125;-68
2024/01/28 20:46:33;;;;;;;7.38;5.63;;;;;;;6.16;100.00;102314.03;10412205;28;20033;-67
2024/01/28 20:51:33;;;;;;;7.53;5.43;;;;;;;6.33;100.00;102318.81;10444714;28;20062;-66
2024/01/28 20:56:33;;;;;;;9.63;6.03;;;;;;;6.56;100.00;102316.75;10412938;28;20165;-67
2024/01/28 21:01:34;;;;;;;5.82;5.25;;;;;;;6.69;100.00;102295.84;10411967;28;20112;-66
2024/01/28 21:06:34;;;;;;;11.48;6.35;;;;;;;6.77;100.00;102288.94;10410868;28;20030;-67
2024/01/28 21:11:35;;;;;;;8.27;5.45;;;;;;;6.78;100.00;102296.00;10411654;28;20116;-66
2024/01/28 21:16:35;;;;;;;11.15;5.78;;;;;;;7.00;100.00;102295.75;10413492;28;20065;-69
2024/01/28 21:21:38;;;;;;;7.00;5.80;;;;;;;7.06;100.00;102297.06;10413564;28;20484;-68
2024/01/28 21:26:39;;;;;;;9.45;6.70;;;;;;;6.98;100.00;102289.66;10443302;28;20041;-67
2024/01/28 21:31:40;;;;;;;6.30;5.78;;;;;;;6.97;100.00;102304.13;10411512;28;20100;-69
2024/01/28 21:36:40;;;;;;;5.70;5.13;;;;;;;6.92;100.00;102296.47;10411202;28;20068;-67
2024/01/28 21:41:40;;;;;;;6.55;5.88;;;;;;;6.93;100.00;102294.63;10441754;28;20037;-67
2024/01/28 21:46:41;;;;;;;7.80;6.63;;;;;;;6.94;100.00;102288.25;10410356;28;20565;-67
2024/01/28 21:51:42;;;;;;;13.30;6.72;;;;;;;6.94;100.00;102288.25;10425076;28;20057;-67
2024/01/28 21:56:42;;;;;;;8.52;6.32;;;;;;;7.08;100.00;102295.91;10409742;28;20110;-66
2024/01/28 22:01:43;;;;;;;9.45;6.43;;;;;;;7.10;100.00;102295.78;10441594;28;20046;-66
2024/01/28 22:06:43;;;;;;;13.45;5.50;;;;;;;7.04;100.00;102294.47;10409703;28;20125;-65
2024/01/28 22:11:47;;;;;;;6.93;5.30;;;;;;;6.88;100.00;102299.56;10409223;28;20442;-66
2024/01/28 22:16:47;;;;;;;7.88;6.30;;;;;;;6.85;100.00;102283.69;10410560;28;20037;-66
2024/01/28 22:21:48;;;;;;;5.60;5.18;;;;;;;6.78;100.00;102287.94;10446206;28;20068;-66
2024/01/28 22:26:48;;;;;;;12.25;6.10;;;;;;;6.63;100.00;102307.16;10431924;28;20061;-69
2024/01/28 22:31:49;;;;;;;8.35;6.70;;;;;;;6.59;100.00;102286.88;10414141;28;20041;-67
2024/01/28 22:36:49;;;;;;;15.70;7.13;;;;;;;6.60;100.00;102293.13;10415961;28;20405;-66
2024/01/28 22:41:50;;;;;;;9.27;7.30;;;;;;;6.62;100.00;102300.06;10425141;28;20442;-66
2024/01/28 22:46:50;;;;;;;14.05;6.40;;;;;;;6.54;100.00;102275.69;10430551;28;20029;-67
2024/01/28 22:51:50;;;;;;;7.50;5.68;;;;;;;6.54;100.00;102270.31;10443121;28;20057;-66